Portada
METAR-TAF:

METAR-TAF

Aeroports :

Geilenkirchen, Alemanya

latitud: 50-57-39N, longitud: 006-2-33E, altitud: 90 m

Observació

L'informe es va fer fa 1 hora i 5 minuts, a les 00:50 UTC
Vent calma
Temperatura 10°C
Humitat 76%
Pressió 1033 hPa
Visibilitat 10 km o més
sense núvols per sota de 1500 mi sense presència de cumulonimbus.

METAR: ETNG 270050Z 00000KT CAVOK 10/06 Q1033

Hora: 03:55 (01:55 UTC)

Pronòstic

L'informe es va fer fa 2 hores i 55 minuts, a les 23:00 UTC
Pronòstic vàlid del 27 a les 00 UTC al 27 a les 15 UTC
Vent 2 kt amb direcció variable
Visibilitat 10 km o més
sense núvols per sota de 1500 mi sense presència de cumulonimbus.
Evolucionant progressivament
l' 27 a les 10 UTC al 27 a les 12 UTC
Vent 5 kt del Nord/Nord-Oest

TAF: ETNG 262300Z 2700/2715 VRB02KT CAVOK BECMG 2710/2712 34005KT

Observacions i pronòstics meteorològics de més de 4000 aeroports (METAR i TAF).

Les estacions disponibles són els punts grocs i vermells al mapa.

Posi el ratolí al punt desitjat per veure el nom de l'estació.

Feu clic per veure les observacions i els pronòstics meteorològics.

Per canviar el mapa: feu clic els botons verds amb una creu de color negre per apropar; al botó verd amb un guió per allunyar la imatge; o en les fletxes verdes per a mapes adjacents.


METAR-TAF: